sensor_id;sensor_type;location;lat;lon;timestamp;pressure;altitude;pressure_sealevel;temperature;humidity
47154;BME280;32907;41.412;2.164;2022-09-27T00:01:06;99999.59;;;24.65;31.65
47154;BME280;32907;41.412;2.164;2022-09-27T00:03:35;99961.75;;;24.38;31.75
47154;BME280;32907;41.412;2.164;2022-09-27T00:06:12;99999.94;;;24.64;31.76
47154;BME280;32907;41.412;2.164;2022-09-27T00:08:41;99947.28;;;24.28;31.63
47154;BME280;32907;41.412;2.164;2022-09-27T00:11:23;99993.50;;;24.60;31.56
47154;BME280;32907;41.412;2.164;2022-09-27T00:13:54;99982.88;;;24.58;31.75
47154;BME280;32907;41.412;2.164;2022-09-27T00:16:24;99989.16;;;24.59;31.91
47154;BME280;32907;41.412;2.164;2022-09-27T00:18:56;99941.34;;;24.26;32.26
47154;BME280;32907;41.412;2.164;2022-09-27T00:21:24;99976.75;;;24.40;31.78
47154;BME280;32907;41.412;2.164;2022-09-27T00:23:52;100000.00;;;24.55;31.77
47154;BME280;32907;41.412;2.164;2022-09-27T00:26:20;99985.69;;;24.49;31.96
47154;BME280;32907;41.412;2.164;2022-09-27T00:28:48;99917.97;;;24.08;32.08
47154;BME280;32907;41.412;2.164;2022-09-27T00:31:24;100000.94;;;24.59;32.69
47154;BME280;32907;41.412;2.164;2022-09-27T00:33:56;99941.69;;;24.25;32.19
47154;BME280;32907;41.412;2.164;2022-09-27T00:36:25;100001.72;;;24.60;32.34
47154;BME280;32907;41.412;2.164;2022-09-27T00:38:55;99939.13;;;24.20;32.11
47154;BME280;32907;41.412;2.164;2022-09-27T00:43:58;99883.41;;;23.95;32.21
47154;BME280;32907;41.412;2.164;2022-09-27T00:46:34;99988.81;;;24.60;32.20
47154;BME280;32907;41.412;2.164;2022-09-27T00:49:27;99935.88;;;24.26;32.20
47154;BME280;32907;41.412;2.164;2022-09-27T00:52:02;99980.03;;;24.54;32.03
47154;BME280;32907;41.412;2.164;2022-09-27T00:54:32;99951.31;;;24.31;32.46
47154;BME280;32907;41.412;2.164;2022-09-27T00:57:02;99970.91;;;24.42;32.38
47154;BME280;32907;41.412;2.164;2022-09-27T00:59:44;99952.59;;;24.34;32.05
47154;BME280;32907;41.412;2.164;2022-09-27T01:02:13;99918.53;;;24.14;32.12
47154;BME280;32907;41.412;2.164;2022-09-27T01:04:42;99915.34;;;24.12;31.97
47154;BME280;32907;41.412;2.164;2022-09-27T01:07:12;99955.16;;;24.39;32.36
47154;BME280;32907;41.412;2.164;2022-09-27T01:09:41;99938.16;;;24.24;32.09
47154;BME280;32907;41.412;2.164;2022-09-27T01:23:32;99941.31;;;24.35;32.08
47154;BME280;32907;41.412;2.164;2022-09-27T01:29:10;99942.56;;;24.38;32.45
47154;BME280;32907;41.412;2.164;2022-09-27T01:31:48;99933.44;;;24.34;32.53
47154;BME280;32907;41.412;2.164;2022-09-27T01:37:05;99862.63;;;23.94;32.69
47154;BME280;32907;41.412;2.164;2022-09-27T01:42:38;99876.94;;;23.99;32.62
47154;BME280;32907;41.412;2.164;2022-09-27T01:45:15;99919.44;;;24.26;32.61
47154;BME280;32907;41.412;2.164;2022-09-27T01:48:13;99896.06;;;24.08;32.76
47154;BME280;32907;41.412;2.164;2022-09-27T01:51:24;99940.97;;;24.37;32.64
47154;BME280;32907;41.412;2.164;2022-09-27T01:54:04;99925.22;;;24.34;32.81
47154;BME280;32907;41.412;2.164;2022-09-27T01:56:50;99906.88;;;24.25;32.86
47154;BME280;32907;41.412;2.164;2022-09-27T01:59:30;99868.16;;;24.06;32.64
47154;BME280;32907;41.412;2.164;2022-09-27T02:02:23;99910.69;;;24.33;32.90
47154;BME280;32907;41.412;2.164;2022-09-27T02:05:18;99852.16;;;23.96;32.82
47154;BME280;32907;41.412;2.164;2022-09-27T02:07:55;99912.16;;;24.31;32.97
47154;BME280;32907;41.412;2.164;2022-09-27T02:10:40;99914.06;;;24.30;32.89
47154;BME280;32907;41.412;2.164;2022-09-27T02:13:22;99861.97;;;23.97;32.54
47154;BME280;32907;41.412;2.164;2022-09-27T02:16:20;99870.59;;;24.08;33.04
47154;BME280;32907;41.412;2.164;2022-09-27T02:19:00;99906.19;;;24.28;32.62
47154;BME280;32907;41.412;2.164;2022-09-27T02:21:54;99893.97;;;24.26;32.70
47154;BME280;32907;41.412;2.164;2022-09-27T02:24:47;99888.38;;;24.22;32.92
47154;BME280;32907;41.412;2.164;2022-09-27T02:27:33;99873.91;;;24.13;32.52
47154;BME280;32907;41.412;2.164;2022-09-27T02:30:10;99851.50;;;23.99;32.59
47154;BME280;32907;41.412;2.164;2022-09-27T02:32:40;99802.53;;;23.77;32.93
47154;BME280;32907;41.412;2.164;2022-09-27T02:35:18;99861.16;;;24.17;32.96
47154;BME280;32907;41.412;2.164;2022-09-27T02:37:47;99849.16;;;24.10;32.37
47154;BME280;32907;41.412;2.164;2022-09-27T02:40:16;99872.13;;;24.17;32.67
47154;BME280;32907;41.412;2.164;2022-09-27T02:42:44;99875.94;;;24.25;32.84
47154;BME280;32907;41.412;2.164;2022-09-27T02:45:15;99833.44;;;23.98;32.50
47154;BME280;32907;41.412;2.164;2022-09-27T02:56:41;99870.78;;;24.23;32.78
47154;BME280;32907;41.412;2.164;2022-09-27T03:05:20;99859.75;;;24.11;32.69
47154;BME280;32907;41.412;2.164;2022-09-27T03:07:50;99862.97;;;24.13;32.63
47154;BME280;32907;41.412;2.164;2022-09-27T03:10:20;99881.25;;;24.21;32.64
47154;BME280;32907;41.412;2.164;2022-09-27T03:12:49;99873.03;;;24.21;33.00
47154;BME280;32907;41.412;2.164;2022-09-27T03:15:17;99814.22;;;23.86;33.04
47154;BME280;32907;41.412;2.164;2022-09-27T03:18:00;99869.19;;;24.22;33.25
47154;BME280;32907;41.412;2.164;2022-09-27T03:20:46;99791.38;;;23.82;33.45
47154;BME280;32907;41.412;2.164;2022-09-27T03:23:16;99844.38;;;24.19;32.90
47154;BME280;32907;41.412;2.164;2022-09-27T03:25:44;99815.56;;;24.00;33.00
47154;BME280;32907;41.412;2.164;2022-09-27T03:28:12;99790.38;;;23.86;33.21
47154;BME280;32907;41.412;2.164;2022-09-27T03:30:44;99817.00;;;23.98;33.20
47154;BME280;32907;41.412;2.164;2022-09-27T03:33:19;99807.78;;;23.82;33.54
47154;BME280;32907;41.412;2.164;2022-09-27T03:35:51;99828.31;;;23.96;33.86
47154;BME280;32907;41.412;2.164;2022-09-27T03:38:19;99812.63;;;23.85;34.00
47154;BME280;32907;41.412;2.164;2022-09-27T03:40:47;99843.28;;;23.99;33.95
47154;BME280;32907;41.412;2.164;2022-09-27T03:43:15;99787.72;;;23.78;33.96
47154;BME280;32907;41.412;2.164;2022-09-27T03:45:45;99775.22;;;23.68;33.85
47154;BME280;32907;41.412;2.164;2022-09-27T03:48:13;99778.56;;;23.73;33.99
47154;BME280;32907;41.412;2.164;2022-09-27T03:50:41;99773.94;;;23.65;34.34
47154;BME280;32907;41.412;2.164;2022-09-27T03:53:10;99763.94;;;23.69;33.75
47154;BME280;32907;41.412;2.164;2022-09-27T03:55:38;99751.13;;;23.61;33.89
47154;BME280;32907;41.412;2.164;2022-09-27T03:58:06;99787.38;;;23.79;34.02
47154;BME280;32907;41.412;2.164;2022-09-27T04:00:34;99798.94;;;23.85;34.23
47154;BME280;32907;41.412;2.164;2022-09-27T04:03:03;99808.47;;;23.79;34.11
47154;BME280;32907;41.412;2.164;2022-09-27T04:05:40;99810.75;;;23.77;34.56
47154;BME280;32907;41.412;2.164;2022-09-27T04:08:13;99816.50;;;23.84;34.25
47154;BME280;32907;41.412;2.164;2022-09-27T04:10:41;99826.66;;;23.83;34.67
47154;BME280;32907;41.412;2.164;2022-09-27T04:13:09;99783.97;;;23.61;34.89
47154;BME280;32907;41.412;2.164;2022-09-27T04:15:50;99814.91;;;23.83;34.96
47154;BME280;32907;41.412;2.164;2022-09-27T04:18:34;99816.56;;;23.75;34.67
47154;BME280;32907;41.412;2.164;2022-09-27T04:21:21;99819.31;;;23.75;34.82
47154;BME280;32907;41.412;2.164;2022-09-27T04:23:51;99791.69;;;23.59;35.19
47154;BME280;32907;41.412;2.164;2022-09-27T04:26:22;99808.72;;;23.65;34.50
47154;BME280;32907;41.412;2.164;2022-09-27T04:29:00;99817.22;;;23.72;34.71
47154;BME280;32907;41.412;2.164;2022-09-27T04:31:28;99821.38;;;23.78;34.37
47154;BME280;32907;41.412;2.164;2022-09-27T04:34:23;99772.44;;;23.47;34.60
47154;BME280;32907;41.412;2.164;2022-09-27T04:37:16;99769.72;;;23.47;34.70
47154;BME280;32907;41.412;2.164;2022-09-27T04:39:48;99773.72;;;23.50;34.30
47154;BME280;32907;41.412;2.164;2022-09-27T04:42:16;99818.75;;;23.82;33.95
47154;BME280;32907;41.412;2.164;2022-09-27T04:44:44;99773.97;;;23.57;34.47
47154;BME280;32907;41.412;2.164;2022-09-27T04:47:14;99753.97;;;23.44;34.42
47154;BME280;32907;41.412;2.164;2022-09-27T04:49:42;99778.16;;;23.63;34.47
47154;BME280;32907;41.412;2.164;2022-09-27T04:52:10;99755.75;;;23.40;34.58
47154;BME280;32907;41.412;2.164;2022-09-27T04:54:37;99825.84;;;23.83;34.72
47154;BME280;32907;41.412;2.164;2022-09-27T04:57:10;99798.47;;;23.62;34.70
47154;BME280;32907;41.412;2.164;2022-09-27T04:59:39;99785.59;;;23.54;35.17
47154;BME280;32907;41.412;2.164;2022-09-27T05:02:09;99785.94;;;23.52;35.13
47154;BME280;32907;41.412;2.164;2022-09-27T05:04:55;99828.09;;;23.81;35.04
47154;BME280;32907;41.412;2.164;2022-09-27T05:07:28;99835.84;;;23.79;35.12
47154;BME280;32907;41.412;2.164;2022-09-27T05:10:03;99815.75;;;23.75;34.19
47154;BME280;32907;41.412;2.164;2022-09-27T05:12:31;99756.78;;;23.35;34.73
47154;BME280;32907;41.412;2.164;2022-09-27T05:15:01;99788.69;;;23.52;34.57
47154;BME280;32907;41.412;2.164;2022-09-27T05:17:58;99784.19;;;23.48;34.56
47154;BME280;32907;41.412;2.164;2022-09-27T05:20:45;99819.94;;;23.72;35.00
47154;BME280;32907;41.412;2.164;2022-09-27T05:23:18;99799.75;;;23.56;34.95
47154;BME280;32907;41.412;2.164;2022-09-27T05:25:46;99820.22;;;23.79;34.55
47154;BME280;32907;41.412;2.164;2022-09-27T05:28:14;99781.22;;;23.61;34.88
47154;BME280;32907;41.412;2.164;2022-09-27T05:30:42;99762.63;;;23.46;34.90
47154;BME280;32907;41.412;2.164;2022-09-27T05:33:16;99828.38;;;23.88;34.64
47154;BME280;32907;41.412;2.164;2022-09-27T05:35:55;99817.81;;;23.78;34.63
47154;BME280;32907;41.412;2.164;2022-09-27T05:38:27;99820.38;;;23.83;34.77
47154;BME280;32907;41.412;2.164;2022-09-27T05:40:57;99826.09;;;23.90;34.83
47154;BME280;32907;41.412;2.164;2022-09-27T05:43:25;99776.59;;;23.53;34.67
47154;BME280;32907;41.412;2.164;2022-09-27T05:45:58;99841.41;;;23.91;34.46
47154;BME280;32907;41.412;2.164;2022-09-27T05:48:27;99812.75;;;23.67;34.62
47154;BME280;32907;41.412;2.164;2022-09-27T05:51:14;99821.28;;;23.66;34.73
47154;BME280;32907;41.412;2.164;2022-09-27T05:53:43;99825.75;;;23.70;34.57
47154;BME280;32907;41.412;2.164;2022-09-27T05:56:18;99815.69;;;23.62;34.59
47154;BME280;32907;41.412;2.164;2022-09-27T05:59:06;99802.63;;;23.59;34.77
47154;BME280;32907;41.412;2.164;2022-09-27T06:01:53;99855.41;;;23.89;34.93
47154;BME280;32907;41.412;2.164;2022-09-27T06:04:41;99820.47;;;23.65;35.25
47154;BME280;32907;41.412;2.164;2022-09-27T06:07:35;99857.34;;;23.89;35.10
47154;BME280;32907;41.412;2.164;2022-09-27T06:10:18;99866.69;;;23.88;34.80
47154;BME280;32907;41.412;2.164;2022-09-27T06:12:46;99848.34;;;23.67;34.57
47154;BME280;32907;41.412;2.164;2022-09-27T06:15:34;99859.81;;;23.82;34.46
47154;BME280;32907;41.412;2.164;2022-09-27T06:18:05;99864.66;;;23.85;34.52
47154;BME280;32907;41.412;2.164;2022-09-27T06:20:34;99817.03;;;23.48;34.41
47154;BME280;32907;41.412;2.164;2022-09-27T06:23:11;99831.00;;;23.55;34.74
47154;BME280;32907;41.412;2.164;2022-09-27T06:25:39;99857.75;;;23.79;35.09
47154;BME280;32907;41.412;2.164;2022-09-27T06:28:17;99847.88;;;23.57;38.64
47154;BME280;32907;41.412;2.164;2022-09-27T06:30:48;99872.56;;;23.78;35.71
47154;BME280;32907;41.412;2.164;2022-09-27T06:33:32;99880.50;;;23.70;35.36
47154;BME280;32907;41.412;2.164;2022-09-27T06:36:03;99869.47;;;23.58;35.26
47154;BME280;32907;41.412;2.164;2022-09-27T06:38:32;99805.44;;;23.21;34.38
47154;BME280;32907;41.412;2.164;2022-09-27T06:41:12;99868.63;;;23.58;34.28
47154;BME280;32907;41.412;2.164;2022-09-27T06:44:04;99882.97;;;23.63;34.76
47154;BME280;32907;41.412;2.164;2022-09-27T06:47:04;99902.91;;;23.64;35.09
47154;BME280;32907;41.412;2.164;2022-09-27T06:49:49;99888.91;;;23.57;34.82
47154;BME280;32907;41.412;2.164;2022-09-27T06:52:18;99814.91;;;23.24;35.05
47154;BME280;32907;41.412;2.164;2022-09-27T06:54:46;99828.03;;;23.39;35.14
47154;BME280;32907;41.412;2.164;2022-09-27T06:57:14;99867.63;;;23.71;35.11
47154;BME280;32907;41.412;2.164;2022-09-27T07:00:02;99876.31;;;23.73;35.25
47154;BME280;32907;41.412;2.164;2022-09-27T07:03:22;99823.81;;;23.41;38.78
47154;BME280;32907;41.412;2.164;2022-09-27T07:06:17;99898.41;;;23.89;37.53
47154;BME280;32907;41.412;2.164;2022-09-27T07:08:52;99866.53;;;23.63;36.38
47154;BME280;32907;41.412;2.164;2022-09-27T07:11:21;99866.53;;;23.63;36.57
47154;BME280;32907;41.412;2.164;2022-09-27T07:13:51;99866.41;;;23.60;36.12
47154;BME280;32907;41.412;2.164;2022-09-27T07:16:19;99920.94;;;23.94;36.10
47154;BME280;32907;41.412;2.164;2022-09-27T07:18:48;99898.13;;;23.82;35.67
47154;BME280;32907;41.412;2.164;2022-09-27T07:21:16;99895.94;;;23.75;35.56
47154;BME280;32907;41.412;2.164;2022-09-27T07:23:44;99895.41;;;23.82;35.69
47154;BME280;32907;41.412;2.164;2022-09-27T07:26:14;99905.19;;;23.91;35.87
47154;BME280;32907;41.412;2.164;2022-09-27T07:28:42;99936.34;;;24.08;35.07
47154;BME280;32907;41.412;2.164;2022-09-27T07:31:15;99919.81;;;23.95;35.39
47154;BME280;32907;41.412;2.164;2022-09-27T07:33:43;99908.38;;;23.93;34.76
47154;BME280;32907;41.412;2.164;2022-09-27T07:36:12;99945.81;;;24.10;35.52
47154;BME280;32907;41.412;2.164;2022-09-27T07:38:42;99932.84;;;23.98;36.13
47154;BME280;32907;41.412;2.164;2022-09-27T07:41:11;99923.06;;;23.89;35.98
47154;BME280;32907;41.412;2.164;2022-09-27T07:43:41;99921.94;;;23.90;35.63
47154;BME280;32907;41.412;2.164;2022-09-27T07:46:11;99950.22;;;24.03;35.54
47154;BME280;32907;41.412;2.164;2022-09-27T07:48:58;99963.72;;;24.08;35.45
47154;BME280;32907;41.412;2.164;2022-09-27T07:51:44;99902.88;;;23.72;35.12
47154;BME280;32907;41.412;2.164;2022-09-27T07:54:38;99928.31;;;23.73;35.08
47154;BME280;32907;41.412;2.164;2022-09-27T07:57:16;99858.97;;;23.31;34.68
47154;BME280;32907;41.412;2.164;2022-09-27T07:59:47;99952.53;;;23.92;35.25
47154;BME280;32907;41.412;2.164;2022-09-27T08:02:19;99959.41;;;23.98;35.22
47154;BME280;32907;41.412;2.164;2022-09-27T08:04:50;99925.53;;;23.82;35.08
47154;BME280;32907;41.412;2.164;2022-09-27T08:07:19;99915.16;;;23.66;34.97
47154;BME280;32907;41.412;2.164;2022-09-27T08:09:50;99961.97;;;24.03;35.25
47154;BME280;32907;41.412;2.164;2022-09-27T08:12:19;99965.66;;;24.07;35.10
47154;BME280;32907;41.412;2.164;2022-09-27T08:14:49;99979.41;;;24.19;35.52
47154;BME280;32907;41.412;2.164;2022-09-27T08:17:17;99947.34;;;23.99;35.26
47154;BME280;32907;41.412;2.164;2022-09-27T08:20:24;99921.34;;;23.84;35.41
47154;BME280;32907;41.412;2.164;2022-09-27T08:23:20;99988.91;;;24.22;35.57
47154;BME280;32907;41.412;2.164;2022-09-27T08:25:55;99953.00;;;23.94;35.17
47154;BME280;32907;41.412;2.164;2022-09-27T08:28:31;99946.06;;;23.96;35.27
47154;BME280;32907;41.412;2.164;2022-09-27T08:31:17;99935.78;;;23.93;35.29
47154;BME280;32907;41.412;2.164;2022-09-27T08:33:49;99968.69;;;24.14;35.26
47154;BME280;32907;41.412;2.164;2022-09-27T08:36:19;99923.06;;;23.89;35.31
47154;BME280;32907;41.412;2.164;2022-09-27T08:38:50;99994.06;;;24.32;35.57
47154;BME280;32907;41.412;2.164;2022-09-27T08:41:33;99978.88;;;24.35;35.21
47154;BME280;32907;41.412;2.164;2022-09-27T08:44:36;100007.88;;;24.36;35.71
47154;BME280;32907;41.412;2.164;2022-09-27T08:50:55;99980.63;;;24.39;35.59
47154;BME280;32907;41.412;2.164;2022-09-27T08:53:26;99939.81;;;24.17;35.49
47154;BME280;32907;41.412;2.164;2022-09-27T08:55:58;99934.53;;;24.12;35.34
47154;BME280;32907;41.412;2.164;2022-09-27T08:58:46;99968.97;;;24.42;35.97
47154;BME280;32907;41.412;2.164;2022-09-27T09:01:23;99937.25;;;24.12;35.72
47154;BME280;32907;41.412;2.164;2022-09-27T09:04:03;99949.28;;;24.19;36.12
47154;BME280;32907;41.412;2.164;2022-09-27T09:06:54;100001.34;;;24.49;36.38
47154;BME280;32907;41.412;2.164;2022-09-27T09:09:42;99998.59;;;24.49;35.74
47154;BME280;32907;41.412;2.164;2022-09-27T09:12:33;99994.72;;;24.50;35.84
47154;BME280;32907;41.412;2.164;2022-09-27T09:15:40;99986.03;;;24.48;35.73
47154;BME280;32907;41.412;2.164;2022-09-27T09:22:20;99987.28;;;24.50;35.65
47154;BME280;32907;41.412;2.164;2022-09-27T09:32:53;99992.91;;;24.54;35.42
47154;BME280;32907;41.412;2.164;2022-09-27T09:35:33;100000.00;;;24.55;35.48
47154;BME280;32907;41.412;2.164;2022-09-27T09:38:36;99996.13;;;24.56;36.12
47154;BME280;32907;41.412;2.164;2022-09-27T09:41:20;99999.34;;;24.58;36.00
47154;BME280;32907;41.412;2.164;2022-09-27T09:43:52;99965.81;;;24.32;35.78
47154;BME280;32907;41.412;2.164;2022-09-27T09:46:29;100009.16;;;24.59;35.96
47154;BME280;32907;41.412;2.164;2022-09-27T09:52:17;99967.75;;;24.31;36.06
47154;BME280;32907;41.412;2.164;2022-09-27T09:55:06;100002.53;;;24.60;35.99
47154;BME280;32907;41.412;2.164;2022-09-27T09:57:45;99976.34;;;24.50;35.83
47154;BME280;32907;41.412;2.164;2022-09-27T10:00:21;99920.03;;;24.11;36.00
47154;BME280;32907;41.412;2.164;2022-09-27T10:02:54;99998.00;;;24.64;35.96
47154;BME280;32907;41.412;2.164;2022-09-27T10:05:23;99955.81;;;24.36;35.79
47154;BME280;32907;41.412;2.164;2022-09-27T10:08:18;99971.19;;;24.49;35.47
47154;BME280;32907;41.412;2.164;2022-09-27T10:10:51;99935.13;;;24.17;35.18
47154;BME280;32907;41.412;2.164;2022-09-27T10:13:48;99998.66;;;24.61;35.19
47154;BME280;32907;41.412;2.164;2022-09-27T10:16:20;99956.66;;;24.27;34.92
47154;BME280;32907;41.412;2.164;2022-09-27T10:18:50;99987.81;;;24.44;35.35
47154;BME280;32907;41.412;2.164;2022-09-27T10:21:23;100005.72;;;24.62;35.19
47154;BME280;32907;41.412;2.164;2022-09-27T10:24:13;99988.09;;;24.51;35.46
47154;BME280;32907;41.412;2.164;2022-09-27T10:27:03;99956.50;;;24.33;35.69
47154;BME280;32907;41.412;2.164;2022-09-27T10:29:36;100006.56;;;24.63;35.76
47154;BME280;32907;41.412;2.164;2022-09-27T10:32:27;100001.88;;;24.63;35.56
47154;BME280;32907;41.412;2.164;2022-09-27T10:35:38;100005.06;;;24.65;35.89
47154;BME280;32907;41.412;2.164;2022-09-27T10:38:40;99997.50;;;24.62;36.23
47154;BME280;32907;41.412;2.164;2022-09-27T10:44:29;99993.88;;;24.70;36.61
47154;BME280;32907;41.412;2.164;2022-09-27T10:47:22;99986.50;;;24.71;36.15
47154;BME280;32907;41.412;2.164;2022-09-27T10:50:19;99960.16;;;24.58;36.26
47154;BME280;32907;41.412;2.164;2022-09-27T10:53:21;99996.31;;;24.72;36.40
47154;BME280;32907;41.412;2.164;2022-09-27T10:55:58;99987.41;;;24.75;36.41
47154;BME280;32907;41.412;2.164;2022-09-27T10:58:30;99938.94;;;24.46;36.79
47154;BME280;32907;41.412;2.164;2022-09-27T11:01:08;99972.78;;;24.71;35.91
47154;BME280;32907;41.412;2.164;2022-09-27T11:03:59;99951.25;;;24.61;35.36
47154;BME280;32907;41.412;2.164;2022-09-27T11:06:30;99955.94;;;24.60;35.17
47154;BME280;32907;41.412;2.164;2022-09-27T11:09:21;99882.41;;;24.20;35.03
47154;BME280;32907;41.412;2.164;2022-09-27T11:12:13;99962.72;;;24.75;34.77
47154;BME280;32907;41.412;2.164;2022-09-27T11:15:13;99929.06;;;24.53;34.65
47154;BME280;32907;41.412;2.164;2022-09-27T11:19:07;99959.88;;;24.71;34.33
47154;BME280;32907;41.412;2.164;2022-09-27T11:29:43;99946.97;;;24.72;34.91
47154;BME280;32907;41.412;2.164;2022-09-27T11:35:29;99938.75;;;24.72;34.51
47154;BME280;32907;41.412;2.164;2022-09-27T11:51:21;99951.94;;;24.58;34.68
47154;BME280;32907;41.412;2.164;2022-09-27T12:09:52;99974.50;;;24.75;35.75
47154;BME280;32907;41.412;2.164;2022-09-27T12:12:27;99958.47;;;24.65;36.20
47154;BME280;32907;41.412;2.164;2022-09-27T12:15:00;99968.69;;;24.77;35.80
47154;BME280;32907;41.412;2.164;2022-09-27T12:17:38;99967.88;;;24.76;35.99
47154;BME280;32907;41.412;2.164;2022-09-27T12:20:34;99958.06;;;24.75;36.37
47154;BME280;32907;41.412;2.164;2022-09-27T12:23:14;99964.47;;;24.79;36.39
47154;BME280;32907;41.412;2.164;2022-09-27T12:26:14;99950.44;;;24.81;36.33
47154;BME280;32907;41.412;2.164;2022-09-27T12:28:50;99950.44;;;24.81;36.22
47154;BME280;32907;41.412;2.164;2022-09-27T12:31:29;99942.19;;;24.81;36.31
47154;BME280;32907;41.412;2.164;2022-09-27T12:36:57;99942.31;;;24.84;36.33
47154;BME280;32907;41.412;2.164;2022-09-27T12:39:27;99943.91;;;24.86;36.70
47154;BME280;32907;41.412;2.164;2022-09-27T12:42:16;99941.50;;;24.84;36.88
47154;BME280;32907;41.412;2.164;2022-09-27T12:44:46;99936.81;;;24.84;36.98
47154;BME280;32907;41.412;2.164;2022-09-27T12:53:20;99906.66;;;24.84;38.21
47154;BME280;32907;41.412;2.164;2022-09-27T13:01:57;99916.97;;;24.88;38.27
47154;BME280;32907;41.412;2.164;2022-09-27T13:04:43;99911.25;;;24.93;37.91
47154;BME280;32907;41.412;2.164;2022-09-27T13:13:19;99883.25;;;24.87;37.72
47154;BME280;32907;41.412;2.164;2022-09-27T13:15:49;99853.63;;;24.68;37.64
47154;BME280;32907;41.412;2.164;2022-09-27T13:18:56;99853.75;;;24.84;38.14
47154;BME280;32907;41.412;2.164;2022-09-27T13:24:50;99874.69;;;24.89;37.96
47154;BME280;32907;41.412;2.164;2022-09-27T13:27:38;99879.28;;;24.97;38.01
47154;BME280;32907;41.412;2.164;2022-09-27T13:36:18;99904.63;;;24.94;38.46
47154;BME280;32907;41.412;2.164;2022-09-27T13:46:54;99877.75;;;24.75;38.89
47154;BME280;32907;41.412;2.164;2022-09-27T13:49:30;99910.91;;;24.94;38.96
47154;BME280;32907;41.412;2.164;2022-09-27T13:54:57;99893.44;;;24.87;39.11
47154;BME280;32907;41.412;2.164;2022-09-27T14:00:08;99904.63;;;24.94;39.56
47154;BME280;32907;41.412;2.164;2022-09-27T14:03:01;99892.53;;;24.95;39.73
47154;BME280;32907;41.412;2.164;2022-09-27T14:05:38;99896.41;;;24.94;38.97
47154;BME280;32907;41.412;2.164;2022-09-27T14:08:27;99896.41;;;24.94;39.31
47154;BME280;32907;41.412;2.164;2022-09-27T14:10:57;99858.09;;;24.73;39.06
47154;BME280;32907;41.412;2.164;2022-09-27T14:13:26;99868.97;;;24.81;38.89
47154;BME280;32907;41.412;2.164;2022-09-27T14:16:04;99860.84;;;24.73;38.70
47154;BME280;32907;41.412;2.164;2022-09-27T14:18:42;99885.22;;;24.87;38.53
47154;BME280;32907;41.412;2.164;2022-09-27T14:27:19;99889.88;;;24.86;38.73
47154;BME280;32907;41.412;2.164;2022-09-27T14:30:24;99821.69;;;24.39;38.54
47154;BME280;32907;41.412;2.164;2022-09-27T14:33:03;99874.66;;;24.76;38.53
47154;BME280;32907;41.412;2.164;2022-09-27T14:35:48;99865.88;;;24.71;38.53
47154;BME280;32907;41.412;2.164;2022-09-27T14:38:37;99888.84;;;24.78;38.81
47154;BME280;32907;41.412;2.164;2022-09-27T14:41:22;99886.31;;;24.73;39.11
47154;BME280;32907;41.412;2.164;2022-09-27T14:43:50;99856.78;;;24.58;39.09
47154;BME280;32907;41.412;2.164;2022-09-27T14:46:27;99915.03;;;24.88;39.10
47154;BME280;32907;41.412;2.164;2022-09-27T14:48:56;99884.72;;;24.72;39.06
47154;BME280;32907;41.412;2.164;2022-09-27T14:51:30;99909.19;;;24.90;39.41
47154;BME280;32907;41.412;2.164;2022-09-27T14:53:59;99872.16;;;24.71;38.87
47154;BME280;32907;41.412;2.164;2022-09-27T14:56:33;99889.97;;;24.77;39.14
47154;BME280;32907;41.412;2.164;2022-09-27T15:01:47;99877.63;;;24.71;39.29
47154;BME280;32907;41.412;2.164;2022-09-27T15:04:18;99876.81;;;24.71;39.44
47154;BME280;32907;41.412;2.164;2022-09-27T15:06:47;99874.41;;;24.69;39.18
47154;BME280;32907;41.412;2.164;2022-09-27T15:09:17;99836.09;;;24.48;39.76
47154;BME280;32907;41.412;2.164;2022-09-27T15:11:48;99910.91;;;24.94;39.59
47154;BME280;32907;41.412;2.164;2022-09-27T15:14:19;99911.75;;;24.95;39.65
47154;BME280;32907;41.412;2.164;2022-09-27T15:16:50;99898.78;;;24.83;39.28
47154;BME280;32907;41.412;2.164;2022-09-27T15:19:27;99877.63;;;24.71;39.34
47154;BME280;32907;41.412;2.164;2022-09-27T15:21:58;99913.66;;;24.94;39.56
47154;BME280;32907;41.412;2.164;2022-09-27T15:24:45;99916.09;;;24.96;39.73
47154;BME280;32907;41.412;2.164;2022-09-27T15:27:21;99915.16;;;24.92;39.83
47154;BME280;32907;41.412;2.164;2022-09-27T15:29:54;99882.97;;;24.68;39.67
47154;BME280;32907;41.412;2.164;2022-09-27T15:32:25;99930.25;;;24.98;39.71
47154;BME280;32907;41.412;2.164;2022-09-27T15:34:54;99918.47;;;24.97;39.70
47154;BME280;32907;41.412;2.164;2022-09-27T15:37:36;99923.97;;;24.97;39.65
47154;BME280;32907;41.412;2.164;2022-09-27T15:43:20;99834.25;;;24.40;40.00
47154;BME280;32907;41.412;2.164;2022-09-27T15:45:50;99913.66;;;24.94;39.75
47154;BME280;32907;41.412;2.164;2022-09-27T15:48:19;99917.22;;;24.95;39.77
47154;BME280;32907;41.412;2.164;2022-09-27T15:50:47;99923.81;;;24.94;39.77
47154;BME280;32907;41.412;2.164;2022-09-27T15:56:05;99919.97;;;24.95;39.79
47154;BME280;32907;41.412;2.164;2022-09-27T15:58:33;99883.22;;;24.75;39.74
47154;BME280;32907;41.412;2.164;2022-09-27T16:01:04;99896.84;;;24.83;39.80
47154;BME280;32907;41.412;2.164;2022-09-27T16:03:32;99912.75;;;24.90;40.43
47154;BME280;32907;41.412;2.164;2022-09-27T16:06:01;99928.66;;;24.97;40.38
47154;BME280;32907;41.412;2.164;2022-09-27T16:08:29;99929.31;;;24.94;40.86
47154;BME280;32907;41.412;2.164;2022-09-27T16:10:58;99853.88;;;24.42;40.88
47154;BME280;32907;41.412;2.164;2022-09-27T16:13:26;99932.19;;;24.97;40.46
47154;BME280;32907;41.412;2.164;2022-09-27T16:16:01;99931.06;;;24.98;40.70
47154;BME280;32907;41.412;2.164;2022-09-27T16:18:28;99894.53;;;24.73;40.80
47154;BME280;32907;41.412;2.164;2022-09-27T16:20:58;99929.31;;;24.94;41.12
47154;BME280;32907;41.412;2.164;2022-09-27T16:23:25;99932.41;;;24.92;40.88
47154;BME280;32907;41.412;2.164;2022-09-27T16:25:53;99947.06;;;24.96;41.25
47154;BME280;32907;41.412;2.164;2022-09-27T16:28:21;99900.34;;;24.72;40.94
47154;BME280;32907;41.412;2.164;2022-09-27T16:30:49;99936.75;;;24.93;41.04